createdAt,value
2022-12-29T00:01:09.027Z,-0.91
2022-12-29T00:03:36.976Z,-0.88
2022-12-29T00:06:04.637Z,-0.83
2022-12-29T00:08:41.567Z,-0.79
2022-12-29T00:11:12.290Z,-0.87
2022-12-29T00:13:58.666Z,-0.88
2022-12-29T00:16:26.918Z,-0.88
2022-12-29T00:18:54.631Z,-0.75
2022-12-29T00:21:42.179Z,-0.73
2022-12-29T00:24:35.337Z,-0.67
2022-12-29T00:27:21.430Z,-0.64
2022-12-29T00:30:08.489Z,-0.60
2022-12-29T00:32:54.779Z,-0.57
2022-12-29T00:35:33.268Z,-0.52
2022-12-29T00:38:25.049Z,-0.51
2022-12-29T00:41:11.743Z,-0.48
2022-12-29T00:43:57.856Z,-0.46
2022-12-29T00:46:25.658Z,-0.45
2022-12-29T00:49:11.595Z,-0.46
2022-12-29T00:51:39.443Z,-0.41
2022-12-29T00:54:06.998Z,-0.42
2022-12-29T00:56:34.786Z,-0.51
2022-12-29T00:59:04.678Z,-0.45
2022-12-29T01:01:32.524Z,-0.44
2022-12-29T01:04:04.150Z,-0.45
2022-12-29T01:06:33.324Z,-0.61
2022-12-29T01:09:19.491Z,-0.75
2022-12-29T01:11:47.276Z,-0.66
2022-12-29T01:14:15.099Z,-0.62
2022-12-29T01:16:42.688Z,-0.70
2022-12-29T01:19:11.076Z,-0.62
2022-12-29T01:21:38.666Z,-0.57
2022-12-29T01:24:06.550Z,-0.55
2022-12-29T01:26:35.205Z,-0.52
2022-12-29T01:29:02.807Z,-0.52
2022-12-29T01:31:30.513Z,-0.51
2022-12-29T01:33:58.381Z,-0.51
2022-12-29T01:36:26.197Z,-0.50
2022-12-29T01:38:53.959Z,-0.51
2022-12-29T01:41:22.840Z,-0.51
2022-12-29T01:44:32.752Z,-0.51
2022-12-29T01:47:00.634Z,-0.58
2022-12-29T01:49:28.784Z,-0.60
2022-12-29T01:52:03.867Z,-0.57
2022-12-29T01:54:38.752Z,-0.57
2022-12-29T01:57:09.836Z,-0.74
2022-12-29T01:59:51.365Z,-0.64
2022-12-29T02:02:19.022Z,-0.60
2022-12-29T02:04:46.852Z,-0.76
2022-12-29T02:07:20.319Z,-0.63
2022-12-29T02:09:50.092Z,-0.61
2022-12-29T02:12:19.687Z,-0.61
2022-12-29T02:14:48.692Z,-0.58
2022-12-29T02:17:22.170Z,-0.64
2022-12-29T02:20:12.952Z,-0.57
2022-12-29T02:22:43.495Z,-0.57
2022-12-29T02:25:50.071Z,-0.55
2022-12-29T02:28:23.500Z,-0.56
2022-12-29T02:31:10.219Z,-0.58
2022-12-29T02:34:09.718Z,-0.59
2022-12-29T02:36:56.455Z,-0.64
2022-12-29T02:39:26.792Z,-0.63
2022-12-29T02:42:32.293Z,-0.77
2022-12-29T02:45:14.750Z,-0.73
2022-12-29T02:48:17.195Z,-0.73
2022-12-29T02:51:08.649Z,-0.71
2022-12-29T02:53:55.899Z,-0.69
2022-12-29T02:56:23.656Z,-0.71
2022-12-29T02:58:51.558Z,-0.69
2022-12-29T03:01:37.928Z,-0.73
2022-12-29T03:04:23.204Z,-0.70
2022-12-29T03:07:09.979Z,-0.98
2022-12-29T03:09:47.388Z,-1.06
2022-12-29T03:12:52.243Z,-1.09
2022-12-29T03:15:46.194Z,-0.95
2022-12-29T03:18:15.784Z,-0.93
2022-12-29T03:21:01.741Z,-0.84
2022-12-29T03:23:30.219Z,-0.80
2022-12-29T03:26:00.278Z,-0.81
2022-12-29T03:28:37.313Z,-0.79
2022-12-29T03:31:06.157Z,-0.82
2022-12-29T03:33:35.100Z,-0.80
2022-12-29T03:36:07.170Z,-0.80
2022-12-29T03:39:03.501Z,-0.88
2022-12-29T03:41:33.201Z,-0.79
2022-12-29T03:44:01.608Z,-0.78
2022-12-29T03:46:29.128Z,-0.79
2022-12-29T03:48:56.805Z,-0.78
2022-12-29T03:51:24.851Z,-0.78
2022-12-29T03:53:52.768Z,-0.81
2022-12-29T03:56:20.639Z,-0.93
2022-12-29T03:58:48.836Z,-0.84
2022-12-29T04:01:16.744Z,-0.81
2022-12-29T04:03:46.311Z,-0.83
2022-12-29T04:06:13.927Z,-0.78
2022-12-29T04:08:42.225Z,-0.78
2022-12-29T04:11:10.074Z,-0.79
2022-12-29T04:13:38.574Z,-0.80
2022-12-29T04:16:06.265Z,-0.81
2022-12-29T04:18:34.201Z,-0.83
2022-12-29T04:21:03.550Z,-0.83
2022-12-29T04:23:33.620Z,-0.88
2022-12-29T04:26:01.729Z,-0.90
2022-12-29T04:28:29.868Z,-0.85
2022-12-29T04:30:58.573Z,-0.84
2022-12-29T04:33:26.811Z,-0.83
2022-12-29T04:35:55.063Z,-0.90
2022-12-29T04:38:24.636Z,-0.88
2022-12-29T04:40:52.714Z,-1.17
2022-12-29T04:43:22.725Z,-1.07
2022-12-29T04:45:52.228Z,-1.04
2022-12-29T04:48:20.723Z,-1.02
2022-12-29T04:50:49.600Z,-0.97
2022-12-29T04:53:18.353Z,-1.03
2022-12-29T04:55:51.035Z,-0.96
2022-12-29T04:58:22.840Z,-0.97
2022-12-29T05:00:52.446Z,-1.05
2022-12-29T05:03:22.090Z,-1.01
2022-12-29T05:05:49.997Z,-1.09
2022-12-29T05:08:20.859Z,-1.12
2022-12-29T05:10:52.189Z,-1.14
2022-12-29T05:13:20.879Z,-1.16
2022-12-29T05:15:53.726Z,-1.16
2022-12-29T05:18:22.685Z,-1.22
2022-12-29T05:20:51.268Z,-1.20
2022-12-29T05:23:19.248Z,-1.27
2022-12-29T05:25:49.833Z,-1.21
2022-12-29T05:28:17.794Z,-1.25
2022-12-29T05:30:49.912Z,-1.20
2022-12-29T05:33:19.233Z,-1.25
2022-12-29T05:35:48.338Z,-1.21
2022-12-29T05:38:16.173Z,-1.19
2022-12-29T05:40:46.491Z,-1.15
2022-12-29T05:43:14.730Z,-1.14
2022-12-29T05:45:42.541Z,-1.14
2022-12-29T05:48:12.063Z,-1.16
2022-12-29T05:50:39.884Z,-1.14
2022-12-29T05:53:09.421Z,-1.12
2022-12-29T05:55:39.189Z,-1.14
2022-12-29T05:58:08.653Z,-1.13
2022-12-29T06:00:36.271Z,-1.13
2022-12-29T06:03:05.195Z,-1.12
2022-12-29T06:05:32.825Z,-1.13
2022-12-29T06:08:00.634Z,-1.13
2022-12-29T06:10:28.769Z,-1.22
2022-12-29T06:12:56.637Z,-1.33
2022-12-29T06:15:24.598Z,-1.35
2022-12-29T06:17:53.299Z,-1.43
2022-12-29T06:20:20.780Z,-1.44
2022-12-29T06:22:48.700Z,-1.45
2022-12-29T06:25:17.229Z,-1.48
2022-12-29T06:27:45.164Z,-1.39
2022-12-29T06:30:13.121Z,-1.32
2022-12-29T06:32:41.787Z,-1.28
2022-12-29T06:35:10.261Z,-1.23
2022-12-29T06:37:38.153Z,-1.20
2022-12-29T06:40:06.743Z,-1.18
2022-12-29T06:42:35.919Z,-1.15
2022-12-29T06:45:05.425Z,-1.21
2022-12-29T06:47:33.289Z,-1.15
2022-12-29T06:50:01.755Z,-1.16
2022-12-29T06:52:29.639Z,-1.14
2022-12-29T06:54:57.516Z,-1.09
2022-12-29T06:57:25.267Z,-1.13
2022-12-29T06:59:52.982Z,-1.19
2022-12-29T07:02:21.103Z,-1.08
2022-12-29T07:04:48.664Z,-1.05
2022-12-29T07:07:17.510Z,-0.98
2022-12-29T07:09:46.728Z,-0.93
2022-12-29T07:12:14.246Z,-0.91
2022-12-29T07:14:43.524Z,-0.92
2022-12-29T07:17:11.687Z,-0.82
2022-12-29T07:19:39.313Z,-0.79
2022-12-29T07:22:07.067Z,-0.81
2022-12-29T07:24:34.931Z,-0.74
2022-12-29T07:27:02.425Z,-0.75
2022-12-29T07:29:29.962Z,-0.84
2022-12-29T07:31:58.119Z,-0.80
2022-12-29T07:34:25.693Z,-0.75
2022-12-29T07:36:53.339Z,-0.73
2022-12-29T07:39:21.251Z,-0.68
2022-12-29T07:41:48.871Z,-0.60
2022-12-29T07:44:17.734Z,-0.57
2022-12-29T07:46:56.196Z,-0.46
2022-12-29T07:49:25.472Z,-0.43
2022-12-29T07:51:53.472Z,-0.33
2022-12-29T07:54:21.307Z,-0.26
2022-12-29T07:56:48.890Z,-0.18
2022-12-29T07:59:16.829Z,-0.12
2022-12-29T08:01:44.727Z,-0.07
2022-12-29T08:04:12.698Z,0.01
2022-12-29T08:06:40.312Z,0.11
2022-12-29T08:09:15.147Z,0.16
2022-12-29T08:11:45.947Z,0.21
2022-12-29T08:14:13.520Z,0.39
2022-12-29T08:16:41.394Z,0.42
2022-12-29T08:19:11.761Z,0.52
2022-12-29T08:21:40.461Z,0.58
2022-12-29T08:24:09.547Z,0.65
2022-12-29T08:26:37.430Z,0.66
2022-12-29T08:29:04.893Z,0.84
2022-12-29T08:31:32.666Z,0.85
2022-12-29T08:34:01.039Z,0.83
2022-12-29T08:36:28.579Z,0.94
2022-12-29T08:38:56.074Z,0.95
2022-12-29T08:41:24.023Z,1.06
2022-12-29T08:43:51.612Z,1.14
2022-12-29T08:46:19.216Z,1.24
2022-12-29T08:48:47.016Z,1.38
2022-12-29T08:51:14.941Z,1.45
2022-12-29T08:53:42.483Z,1.56
2022-12-29T08:56:10.976Z,1.64
2022-12-29T08:58:39.549Z,1.73
2022-12-29T09:01:08.103Z,1.84
2022-12-29T09:06:23.805Z,1.94
2022-12-29T09:08:51.644Z,2.06
2022-12-29T09:11:22.892Z,2.15
2022-12-29T09:13:50.911Z,2.23
2022-12-29T09:16:19.440Z,2.28
2022-12-29T09:18:47.141Z,2.32
2022-12-29T09:21:15.081Z,2.40
2022-12-29T09:23:42.632Z,2.42
2022-12-29T09:26:10.692Z,2.33
2022-12-29T09:28:39.031Z,2.32
2022-12-29T09:31:07.147Z,2.28
2022-12-29T09:33:35.314Z,2.28
2022-12-29T09:36:04.017Z,2.30
2022-12-29T09:38:31.784Z,2.32
2022-12-29T09:41:08.267Z,2.39
2022-12-29T09:44:04.225Z,2.44
2022-12-29T09:46:39.600Z,2.48
2022-12-29T09:49:14.813Z,2.54
2022-12-29T09:51:44.890Z,2.63
2022-12-29T09:54:37.780Z,2.73
2022-12-29T09:57:09.852Z,2.82
2022-12-29T09:59:41.830Z,2.85
2022-12-29T10:02:28.800Z,2.99
2022-12-29T10:04:56.712Z,3.04
2022-12-29T10:08:02.841Z,3.21
2022-12-29T10:10:39.732Z,3.49
2022-12-29T10:13:28.797Z,3.59
2022-12-29T10:16:18.014Z,3.68
2022-12-29T10:19:07.952Z,3.55
2022-12-29T10:22:00.991Z,3.72
2022-12-29T10:24:29.098Z,4.15
2022-12-29T10:26:58.285Z,3.94
2022-12-29T10:29:32.330Z,4.05
2022-12-29T10:32:02.177Z,4.12
2022-12-29T10:34:35.887Z,4.34
2022-12-29T10:37:16.137Z,4.56
2022-12-29T10:39:49.456Z,4.78
2022-12-29T10:42:37.882Z,4.89
2022-12-29T10:45:06.578Z,5.13
2022-12-29T10:47:37.269Z,5.06
2022-12-29T10:50:05.853Z,5.11
2022-12-29T10:52:34.074Z,5.32
2022-12-29T10:55:11.199Z,5.34
2022-12-29T10:57:42.154Z,5.50
2022-12-29T11:00:23.950Z,5.59
2022-12-29T11:03:05.271Z,5.65
2022-12-29T11:05:42.111Z,5.71
2022-12-29T11:08:18.668Z,5.69
2022-12-29T11:10:47.523Z,5.77
2022-12-29T11:13:16.623Z,5.75
2022-12-29T11:15:48.922Z,5.79
2022-12-29T11:18:23.006Z,6.01
2022-12-29T11:20:55.260Z,6.02
2022-12-29T11:23:24.806Z,6.03
2022-12-29T11:26:06.770Z,6.03
2022-12-29T11:28:35.132Z,6.12
2022-12-29T11:31:04.957Z,6.08
2022-12-29T11:33:33.581Z,6.19
2022-12-29T11:36:08.198Z,6.18
2022-12-29T11:38:42.105Z,6.21
2022-12-29T11:41:13.419Z,6.17
2022-12-29T11:43:44.888Z,6.24
2022-12-29T11:46:18.896Z,6.38
2022-12-29T11:48:47.471Z,6.44
2022-12-29T11:51:25.319Z,6.36
2022-12-29T11:53:57.615Z,6.38
2022-12-29T11:56:41.635Z,6.42
2022-12-29T11:59:27.899Z,6.46
2022-12-29T12:01:56.082Z,6.51
2022-12-29T12:04:27.631Z,6.54
2022-12-29T12:07:03.543Z,6.56
2022-12-29T12:10:07.426Z,6.59
2022-12-29T12:12:40.751Z,6.62
2022-12-29T12:15:19.583Z,6.78
2022-12-29T12:18:03.421Z,6.70
2022-12-29T12:20:42.756Z,6.67
2022-12-29T12:23:22.327Z,6.84
2022-12-29T12:26:00.858Z,6.79
2022-12-29T12:28:40.755Z,6.83
2022-12-29T12:31:39.858Z,6.86
2022-12-29T12:34:14.701Z,6.88
2022-12-29T12:36:53.131Z,6.89
2022-12-29T12:39:30.874Z,6.93
2022-12-29T12:42:19.369Z,6.91
2022-12-29T12:44:54.772Z,6.95
2022-12-29T12:47:37.539Z,7.02
2022-12-29T12:50:07.916Z,7.08
2022-12-29T12:53:10.132Z,7.09
2022-12-29T12:55:56.615Z,7.15
2022-12-29T12:59:02.991Z,7.23
2022-12-29T13:02:03.108Z,7.22
2022-12-29T13:04:54.454Z,7.25
2022-12-29T13:07:22.462Z,7.34
2022-12-29T13:10:21.663Z,7.37
2022-12-29T13:13:02.237Z,7.38
2022-12-29T13:15:51.676Z,7.35
2022-12-29T13:18:27.585Z,7.35
2022-12-29T13:20:58.303Z,7.42
2022-12-29T13:23:37.111Z,7.38
2022-12-29T13:26:15.282Z,7.42
2022-12-29T13:29:05.721Z,7.42
2022-12-29T13:31:54.824Z,7.45
2022-12-29T13:34:29.611Z,7.53
2022-12-29T13:37:01.153Z,7.51
2022-12-29T13:39:52.022Z,7.51
2022-12-29T13:42:20.771Z,7.50
2022-12-29T13:44:55.040Z,7.51
2022-12-29T13:48:07.592Z,7.59
2022-12-29T13:50:38.214Z,7.53
2022-12-29T13:53:36.945Z,7.57
2022-12-29T13:56:34.746Z,7.55
2022-12-29T13:59:21.239Z,7.60
2022-12-29T14:02:01.181Z,7.62
2022-12-29T14:04:33.718Z,7.58
2022-12-29T14:07:06.560Z,7.62
2022-12-29T14:09:55.244Z,7.62
2022-12-29T14:12:34.619Z,7.63
2022-12-29T14:15:11.721Z,7.64
2022-12-29T14:17:44.419Z,7.63
2022-12-29T14:20:21.965Z,7.73
2022-12-29T14:23:03.042Z,7.71
2022-12-29T14:26:21.976Z,7.68
2022-12-29T14:28:49.870Z,7.74
2022-12-29T14:31:17.647Z,7.76
2022-12-29T14:34:08.500Z,7.78
2022-12-29T14:36:38.654Z,7.77
2022-12-29T14:39:45.277Z,7.72
2022-12-29T14:42:15.435Z,7.76
2022-12-29T14:45:28.281Z,7.78
2022-12-29T14:47:56.927Z,7.74
2022-12-29T14:50:26.335Z,7.71
2022-12-29T14:53:04.188Z,7.68
2022-12-29T14:55:51.021Z,7.73
2022-12-29T14:58:22.153Z,7.73
2022-12-29T15:00:50.325Z,7.72
2022-12-29T15:03:19.541Z,7.70
2022-12-29T15:05:50.109Z,7.76
2022-12-29T15:08:22.794Z,7.72
2022-12-29T15:10:54.959Z,7.75
2022-12-29T15:13:26.652Z,7.73
2022-12-29T15:15:54.231Z,7.73
2022-12-29T15:18:27.019Z,7.72
2022-12-29T15:20:58.124Z,7.72
2022-12-29T15:23:26.568Z,7.71
2022-12-29T15:26:00.166Z,7.72
2022-12-29T15:28:31.629Z,7.79
2022-12-29T15:31:10.308Z,7.84
2022-12-29T15:33:40.954Z,7.74
2022-12-29T15:36:13.976Z,7.82
2022-12-29T15:38:41.855Z,7.84
2022-12-29T15:41:58.348Z,7.91
2022-12-29T15:44:30.794Z,7.95
2022-12-29T15:46:58.709Z,7.99
2022-12-29T15:49:32.042Z,7.99
2022-12-29T15:52:00.234Z,8.02
2022-12-29T15:54:32.842Z,7.98
2022-12-29T15:57:00.438Z,7.93
2022-12-29T15:59:28.825Z,7.89
2022-12-29T16:01:58.111Z,7.83
2022-12-29T16:04:31.489Z,7.89
2022-12-29T16:06:59.704Z,7.95
2022-12-29T16:09:44.555Z,7.97
2022-12-29T16:12:21.131Z,7.86
2022-12-29T16:14:52.901Z,7.83
2022-12-29T16:17:27.892Z,7.81
2022-12-29T16:19:59.291Z,7.76
2022-12-29T16:22:34.051Z,7.81
2022-12-29T16:25:07.980Z,7.73
2022-12-29T16:27:41.762Z,7.72
2022-12-29T16:30:26.526Z,7.66
2022-12-29T16:33:01.472Z,7.75
2022-12-29T16:35:36.154Z,7.69
2022-12-29T16:38:18.684Z,7.72
2022-12-29T16:41:05.550Z,7.68
2022-12-29T16:43:42.771Z,7.66
2022-12-29T16:46:25.060Z,7.60
2022-12-29T16:48:55.054Z,7.58
2022-12-29T16:51:31.014Z,7.54
2022-12-29T16:53:59.617Z,7.54
2022-12-29T16:56:31.117Z,7.56
2022-12-29T16:59:08.245Z,7.51
2022-12-29T17:01:38.542Z,7.56
2022-12-29T17:04:08.003Z,7.59
2022-12-29T17:06:35.849Z,7.53
2022-12-29T17:09:03.724Z,7.53
2022-12-29T17:11:59.379Z,7.46
2022-12-29T17:14:41.870Z,7.42
2022-12-29T17:17:16.785Z,7.37
2022-12-29T17:19:56.245Z,7.32
2022-12-29T17:22:26.689Z,7.29
2022-12-29T17:24:56.377Z,7.27
2022-12-29T17:27:29.960Z,7.25
2022-12-29T17:30:01.058Z,7.26
2022-12-29T17:32:29.409Z,7.27
2022-12-29T17:34:56.951Z,7.22
2022-12-29T17:37:24.891Z,7.17
2022-12-29T17:39:52.671Z,7.21
2022-12-29T17:42:20.439Z,7.19
2022-12-29T17:44:48.398Z,7.13
2022-12-29T17:47:16.171Z,7.08
2022-12-29T17:49:47.154Z,7.00
2022-12-29T17:52:16.385Z,6.98
2022-12-29T17:54:52.022Z,6.92
2022-12-29T17:57:21.530Z,6.87
2022-12-29T17:59:49.418Z,6.82
2022-12-29T18:02:26.924Z,6.75
2022-12-29T18:04:55.792Z,6.71
2022-12-29T18:07:23.431Z,6.64
2022-12-29T18:09:51.040Z,6.62
2022-12-29T18:12:38.844Z,6.59
2022-12-29T18:15:07.843Z,6.58
2022-12-29T18:17:35.835Z,6.57
2022-12-29T18:20:03.529Z,6.54
2022-12-29T18:22:32.240Z,6.51
2022-12-29T18:25:02.065Z,6.52
2022-12-29T18:27:29.731Z,6.52
2022-12-29T18:29:57.238Z,6.52
2022-12-29T18:32:25.267Z,6.52
2022-12-29T18:34:52.836Z,6.49
2022-12-29T18:37:24.765Z,6.46
2022-12-29T18:39:52.551Z,6.41
2022-12-29T18:42:20.144Z,6.35
2022-12-29T18:44:47.881Z,6.30
2022-12-29T18:47:15.778Z,6.27
2022-12-29T18:49:43.329Z,6.21
2022-12-29T18:52:13.635Z,6.15
2022-12-29T18:54:41.522Z,6.15
2022-12-29T18:57:09.203Z,6.14
2022-12-29T18:59:36.952Z,6.13
2022-12-29T19:02:05.113Z,6.06
2022-12-29T19:04:32.906Z,6.06
2022-12-29T19:07:00.444Z,6.02
2022-12-29T19:09:28.420Z,6.02
2022-12-29T19:11:56.125Z,6.01
2022-12-29T19:14:24.026Z,5.98
2022-12-29T19:16:52.469Z,5.95
2022-12-29T19:19:20.125Z,5.96
2022-12-29T19:21:47.914Z,5.99
2022-12-29T19:24:15.727Z,6.02
2022-12-29T19:26:43.424Z,6.04
2022-12-29T19:29:18.070Z,6.06
2022-12-29T19:31:46.156Z,6.05
2022-12-29T19:34:15.265Z,6.10
2022-12-29T19:36:44.138Z,6.12
2022-12-29T19:39:12.567Z,6.12
2022-12-29T19:41:40.096Z,6.05
2022-12-29T19:44:08.396Z,6.03
2022-12-29T19:46:36.244Z,6.07
2022-12-29T19:49:03.876Z,6.07
2022-12-29T19:51:31.669Z,6.03
2022-12-29T19:53:59.587Z,6.04
2022-12-29T19:56:27.116Z,6.10
2022-12-29T19:58:54.851Z,6.10
2022-12-29T20:01:23.435Z,6.11
2022-12-29T20:03:51.862Z,6.12
2022-12-29T20:06:19.735Z,6.10
2022-12-29T20:08:47.527Z,6.12
2022-12-29T20:11:17.624Z,6.14
2022-12-29T20:13:45.420Z,6.15
2022-12-29T20:16:15.781Z,6.17
2022-12-29T20:18:44.106Z,6.21
2022-12-29T20:21:17.980Z,6.32
2022-12-29T20:23:46.967Z,6.35
2022-12-29T20:26:18.602Z,6.40
2022-12-29T20:28:47.201Z,6.37
2022-12-29T20:31:21.376Z,6.42
2022-12-29T20:33:49.575Z,6.43
2022-12-29T20:36:20.764Z,6.47
2022-12-29T20:38:49.466Z,6.49
2022-12-29T20:41:17.825Z,6.56
2022-12-29T20:43:45.518Z,6.75
2022-12-29T20:46:20.288Z,6.66
2022-12-29T20:48:49.449Z,6.64
2022-12-29T20:51:17.933Z,6.60
2022-12-29T20:53:45.719Z,6.75
2022-12-29T20:56:16.260Z,6.78
2022-12-29T20:59:17.204Z,6.85
2022-12-29T21:01:32.711Z,6.87
2022-12-29T21:04:00.356Z,6.80
2022-12-29T21:06:28.070Z,6.90
2022-12-29T21:08:55.965Z,6.88
2022-12-29T21:11:23.572Z,6.90
2022-12-29T21:13:51.168Z,6.81
2022-12-29T21:16:21.159Z,6.85
2022-12-29T21:18:49.230Z,6.81
2022-12-29T21:21:22.524Z,6.88
2022-12-29T21:23:51.251Z,6.84
2022-12-29T21:26:22.595Z,6.92
2022-12-29T21:28:51.353Z,6.94
2022-12-29T21:31:29.140Z,6.89
2022-12-29T21:33:57.394Z,6.91
2022-12-29T21:36:25.248Z,6.98
2022-12-29T21:38:53.362Z,6.98
2022-12-29T21:41:21.893Z,6.96
2022-12-29T21:44:08.208Z,6.98
2022-12-29T21:46:38.326Z,7.02
2022-12-29T21:49:06.824Z,6.98
2022-12-29T21:51:53.346Z,7.00
2022-12-29T21:54:45.222Z,7.01
2022-12-29T21:57:34.227Z,6.99
2022-12-29T22:00:20.917Z,7.00
2022-12-29T22:03:07.654Z,6.99
2022-12-29T22:05:54.373Z,7.06
2022-12-29T22:08:40.645Z,7.03
2022-12-29T22:11:27.430Z,7.08
2022-12-29T22:13:56.405Z,6.99
2022-12-29T22:16:25.008Z,7.02
2022-12-29T22:18:52.881Z,7.07
2022-12-29T22:21:20.783Z,7.05
2022-12-29T22:23:54.028Z,7.14
2022-12-29T22:26:21.879Z,7.39
2022-12-29T22:28:52.007Z,7.43
2022-12-29T22:31:30.235Z,7.40
2022-12-29T22:34:00.686Z,7.46
2022-12-29T22:36:28.866Z,7.31
2022-12-29T22:38:56.777Z,7.36
2022-12-29T22:41:24.748Z,7.32
2022-12-29T22:43:52.477Z,7.42
2022-12-29T22:46:20.170Z,7.39
2022-12-29T22:48:47.974Z,7.42
2022-12-29T22:51:15.511Z,7.43
2022-12-29T22:53:43.115Z,7.51
2022-12-29T22:56:13.162Z,7.55
2022-12-29T22:58:41.794Z,7.47
2022-12-29T23:01:11.019Z,7.46
2022-12-29T23:03:39.152Z,7.52
2022-12-29T23:06:07.901Z,7.43
2022-12-29T23:08:37.606Z,7.41
2022-12-29T23:11:07.903Z,7.43
2022-12-29T23:13:36.002Z,7.44
2022-12-29T23:16:03.754Z,7.46
2022-12-29T23:18:31.715Z,7.43
2022-12-29T23:20:59.251Z,7.45
2022-12-29T23:23:49.170Z,7.47
2022-12-29T23:26:18.726Z,7.48
2022-12-29T23:28:46.242Z,7.48
2022-12-29T23:31:14.650Z,7.52
2022-12-29T23:33:42.574Z,7.53
2022-12-29T23:36:10.315Z,7.53
2022-12-29T23:38:37.882Z,7.49
2022-12-29T23:41:05.902Z,7.47
2022-12-29T23:43:33.903Z,7.46
2022-12-29T23:46:09.252Z,7.58
2022-12-29T23:48:37.775Z,7.67
2022-12-29T23:51:05.922Z,7.76
2022-12-29T23:53:35.117Z,7.65
2022-12-29T23:56:03.167Z,7.80
2022-12-29T23:58:31.593Z,7.68
